createdAt,value
2023-01-06T00:00:27.871Z,98426.13
2023-01-06T00:02:54.344Z,98412.41
2023-01-06T00:05:21.048Z,98383.97
2023-01-06T00:07:50.930Z,98410.00
2023-01-06T00:10:19.695Z,98426.97
2023-01-06T00:12:47.671Z,98393.06
2023-01-06T00:15:16.792Z,98348.25
2023-01-06T00:17:43.508Z,98286.50
2023-01-06T00:20:10.596Z,98311.44
2023-01-06T00:22:37.678Z,98355.19
2023-01-06T00:25:04.312Z,98351.59
2023-01-06T00:27:31.472Z,98367.28
2023-01-06T00:30:00.030Z,98371.66
2023-01-06T00:32:28.580Z,98386.81
2023-01-06T00:34:55.083Z,98375.63
2023-01-06T00:37:23.573Z,98372.03
2023-01-06T00:39:52.339Z,98383.28
2023-01-06T00:42:20.868Z,98395.72
2023-01-06T00:44:47.334Z,98369.41
2023-01-06T00:47:16.517Z,98329.13
2023-01-06T00:49:44.165Z,98251.78
2023-01-06T00:52:10.941Z,98244.13
2023-01-06T00:54:37.756Z,98303.69
2023-01-06T00:57:05.791Z,98304.13
2023-01-06T00:59:32.498Z,98301.16
2023-01-06T01:01:59.402Z,98273.97
2023-01-06T01:04:26.554Z,98269.75
2023-01-06T01:06:53.788Z,98285.25
2023-01-06T01:09:22.162Z,98294.50
2023-01-06T01:12:07.624Z,98381.63
2023-01-06T01:14:35.266Z,98395.22
2023-01-06T01:17:01.841Z,98386.81
2023-01-06T01:19:28.664Z,98379.59
2023-01-06T01:21:55.207Z,98372.00
2023-01-06T01:24:21.808Z,98318.63
2023-01-06T01:26:48.413Z,98258.66
2023-01-06T01:29:15.641Z,98224.38
2023-01-06T01:31:42.562Z,98216.31
2023-01-06T01:34:10.518Z,98280.75
2023-01-06T01:36:37.021Z,98260.44
2023-01-06T01:39:03.634Z,98237.06
2023-01-06T01:41:32.426Z,98250.59
2023-01-06T01:44:00.449Z,98332.56
2023-01-06T01:46:41.020Z,98366.63
2023-01-06T01:49:13.508Z,98392.56
2023-01-06T01:51:42.267Z,98383.78
2023-01-06T01:54:10.879Z,98357.84
2023-01-06T01:56:42.989Z,98391.56
2023-01-06T01:59:12.114Z,98384.56
2023-01-06T02:01:38.761Z,98348.13
2023-01-06T02:04:06.038Z,98332.50
2023-01-06T02:06:32.725Z,98316.47
2023-01-06T02:09:03.186Z,98343.72
2023-01-06T02:11:31.121Z,98365.66
2023-01-06T02:14:06.185Z,98356.28
2023-01-06T02:16:47.814Z,98357.66
2023-01-06T02:19:35.038Z,98354.94
2023-01-06T02:22:01.545Z,98392.81
2023-01-06T02:24:46.626Z,98378.78
2023-01-06T02:27:39.228Z,98310.81
2023-01-06T02:30:15.597Z,98329.38
2023-01-06T02:32:49.251Z,98328.41
2023-01-06T02:35:34.654Z,98332.00
2023-01-06T02:38:10.693Z,98288.50
2023-01-06T02:40:46.613Z,98270.19
2023-01-06T02:43:24.673Z,98348.22
2023-01-06T02:46:09.877Z,98389.47
2023-01-06T02:48:36.394Z,98379.56
2023-01-06T02:51:03.059Z,98403.53
2023-01-06T02:53:35.572Z,98424.59
2023-01-06T02:56:02.671Z,98438.91
2023-01-06T02:58:47.795Z,98441.31
2023-01-06T03:01:22.765Z,98436.47
2023-01-06T03:03:52.107Z,98423.91
2023-01-06T03:06:20.944Z,98381.59
2023-01-06T03:08:51.300Z,98353.97
2023-01-06T03:11:18.221Z,98350.97
2023-01-06T03:13:56.342Z,98359.56
2023-01-06T03:16:22.868Z,98374.38
2023-01-06T03:18:53.084Z,98376.63
2023-01-06T03:21:21.569Z,98357.97
2023-01-06T03:23:48.106Z,98348.22
2023-01-06T03:26:14.888Z,98353.09
2023-01-06T03:28:41.423Z,98330.19
2023-01-06T03:31:07.939Z,98310.59
2023-01-06T03:33:39.940Z,98280.13
2023-01-06T03:36:21.088Z,98302.50
2023-01-06T03:38:50.739Z,98309.94
2023-01-06T03:41:46.096Z,98320.97
2023-01-06T03:44:15.581Z,98315.19
2023-01-06T03:46:47.118Z,98312.75
2023-01-06T03:49:19.612Z,98333.06
2023-01-06T03:51:58.457Z,98316.47
2023-01-06T03:54:35.352Z,98307.69
2023-01-06T03:57:07.865Z,98298.50
2023-01-06T03:59:37.362Z,98308.06
2023-01-06T04:02:05.698Z,98300.13
2023-01-06T04:04:32.170Z,98281.34
2023-01-06T04:06:58.720Z,98268.88
2023-01-06T04:09:25.172Z,98296.50
2023-01-06T04:12:10.068Z,98266.66
2023-01-06T04:14:38.379Z,98217.47
2023-01-06T04:17:04.991Z,98217.03
2023-01-06T04:19:31.672Z,98258.84
2023-01-06T04:21:58.115Z,98289.66
2023-01-06T04:24:24.607Z,98293.28
2023-01-06T04:26:51.080Z,98303.72
2023-01-06T04:29:17.750Z,98306.09
2023-01-06T04:31:44.302Z,98300.09
2023-01-06T04:34:10.841Z,98297.25
2023-01-06T04:36:37.359Z,98292.16
2023-01-06T04:39:04.053Z,98244.63
2023-01-06T04:41:32.238Z,98223.13
2023-01-06T04:43:58.822Z,98232.75
2023-01-06T04:46:25.312Z,98255.66
2023-01-06T04:48:51.871Z,98266.56
2023-01-06T04:51:18.451Z,98284.59
2023-01-06T04:53:44.938Z,98308.66
2023-01-06T04:56:12.495Z,98321.75
2023-01-06T04:58:41.328Z,98326.81
2023-01-06T05:01:11.581Z,98295.59
2023-01-06T05:03:38.329Z,98264.66
2023-01-06T05:06:09.785Z,98274.31
2023-01-06T05:08:38.096Z,98269.88
2023-01-06T05:11:06.034Z,98253.00
2023-01-06T05:13:34.204Z,98259.44
2023-01-06T05:16:01.146Z,98236.88
2023-01-06T05:18:27.716Z,98255.38
2023-01-06T05:20:54.851Z,98322.34
2023-01-06T05:23:23.876Z,98339.91
2023-01-06T05:25:51.760Z,98309.75
2023-01-06T05:28:18.620Z,98295.09
2023-01-06T05:30:45.129Z,98330.69
2023-01-06T05:33:11.696Z,98318.81
2023-01-06T05:35:38.383Z,98305.97
2023-01-06T05:38:06.948Z,98245.63
2023-01-06T05:40:34.520Z,98217.06
2023-01-06T05:43:01.030Z,98233.91
2023-01-06T05:45:29.414Z,98267.97
2023-01-06T05:47:55.942Z,98262.81
2023-01-06T05:50:24.525Z,98227.06
2023-01-06T05:52:50.989Z,98169.16
2023-01-06T05:55:17.590Z,98128.03
2023-01-06T05:57:44.109Z,98169.53
2023-01-06T06:00:10.988Z,98210.13
2023-01-06T06:02:37.465Z,98206.53
2023-01-06T06:05:04.079Z,98182.00
2023-01-06T06:07:30.609Z,98163.47
2023-01-06T06:09:57.149Z,98178.78
2023-01-06T06:12:25.154Z,98188.78
2023-01-06T06:14:54.473Z,98196.19
2023-01-06T06:17:20.914Z,98179.94
2023-01-06T06:19:47.454Z,98124.41
2023-01-06T06:22:13.955Z,98121.59
2023-01-06T06:24:40.506Z,98141.31
2023-01-06T06:27:07.017Z,98147.34
2023-01-06T06:29:33.469Z,98129.25
2023-01-06T06:32:00.025Z,98140.91
2023-01-06T06:34:28.555Z,98140.91
2023-01-06T06:36:54.995Z,98144.13
2023-01-06T06:39:24.049Z,98119.56
2023-01-06T06:41:50.886Z,98087.75
2023-01-06T06:44:17.431Z,98078.69
2023-01-06T06:46:43.886Z,98075.66
2023-01-06T06:49:10.364Z,98066.38
2023-01-06T06:51:37.097Z,98059.50
2023-01-06T06:54:05.816Z,98045.75
2023-01-06T06:56:32.389Z,98031.97
2023-01-06T06:58:58.942Z,98035.97
2023-01-06T07:01:25.519Z,98021.53
2023-01-06T07:03:52.001Z,98016.44
2023-01-06T07:06:22.889Z,98002.81
2023-01-06T07:08:50.073Z,98001.38
2023-01-06T07:11:17.038Z,97987.47
2023-01-06T07:13:43.752Z,97957.56
2023-01-06T07:16:11.419Z,97947.44
2023-01-06T07:18:38.382Z,97932.34
2023-01-06T07:21:06.058Z,97929.41
2023-01-06T07:23:32.593Z,97922.41
2023-01-06T07:26:00.339Z,97913.41
2023-01-06T07:28:27.394Z,97904.94
2023-01-06T07:30:53.944Z,97900.41
2023-01-06T07:33:20.727Z,97906.03
2023-01-06T07:35:47.256Z,97903.97
2023-01-06T07:38:13.812Z,97898.84
2023-01-06T07:40:41.161Z,97891.28
2023-01-06T07:43:09.317Z,97879.50
2023-01-06T07:45:36.255Z,97876.22
2023-01-06T07:48:02.782Z,97861.59
2023-01-06T07:50:29.651Z,97861.72
2023-01-06T07:53:00.201Z,97857.75
2023-01-06T07:55:26.748Z,97841.97
2023-01-06T07:57:53.798Z,97841.75
2023-01-06T08:00:20.476Z,97838.53
2023-01-06T08:02:46.970Z,97826.75
2023-01-06T08:05:13.543Z,97830.75
2023-01-06T08:07:40.076Z,97820.25
2023-01-06T08:10:07.321Z,97822.28
2023-01-06T08:12:33.858Z,97818.63
2023-01-06T08:15:03.045Z,97822.66
2023-01-06T08:17:32.516Z,97817.28
2023-01-06T08:19:58.980Z,97813.13
2023-01-06T08:22:27.502Z,97802.84
2023-01-06T08:24:53.984Z,97797.50
2023-01-06T08:27:20.800Z,97794.50
2023-01-06T08:29:50.187Z,97800.81
2023-01-06T08:32:16.881Z,97791.50
2023-01-06T08:34:43.368Z,97785.44
2023-01-06T08:37:09.829Z,97776.72
2023-01-06T08:39:36.397Z,97764.34
2023-01-06T08:42:02.846Z,97771.44
2023-01-06T08:44:29.292Z,97760.00
2023-01-06T08:46:55.891Z,97755.25
2023-01-06T08:49:22.336Z,97742.50
2023-01-06T08:51:48.829Z,97734.69
2023-01-06T08:54:15.530Z,97722.75
2023-01-06T08:56:43.658Z,97723.41
2023-01-06T08:59:12.692Z,97718.69
2023-01-06T09:01:39.390Z,97719.56
2023-01-06T09:04:07.318Z,97708.78
2023-01-06T09:06:36.494Z,97694.19
2023-01-06T09:09:05.176Z,97696.09
2023-01-06T09:11:31.732Z,97682.19
2023-01-06T09:13:59.683Z,97683.16
2023-01-06T09:16:26.259Z,97659.63
2023-01-06T09:18:53.464Z,97648.94
2023-01-06T09:21:23.659Z,97649.84
2023-01-06T09:23:50.869Z,97638.13
2023-01-06T09:26:18.046Z,97621.34
2023-01-06T09:28:44.580Z,97609.00
2023-01-06T09:31:11.215Z,97615.94
2023-01-06T09:33:37.718Z,97597.34
2023-01-06T09:36:06.625Z,97590.53
2023-01-06T09:38:33.118Z,97581.56
2023-01-06T09:40:59.583Z,97572.38
2023-01-06T09:43:31.826Z,97555.53
2023-01-06T09:46:01.721Z,97546.34
2023-01-06T09:48:40.746Z,97543.72
2023-01-06T09:51:09.493Z,97541.19
2023-01-06T09:53:43.022Z,97534.84
2023-01-06T09:56:13.734Z,97530.63
2023-01-06T09:58:50.871Z,97525.94
2023-01-06T10:01:22.531Z,97520.66
2023-01-06T10:03:49.356Z,97508.00
2023-01-06T10:06:18.812Z,97503.84
2023-01-06T10:08:53.561Z,97495.38
2023-01-06T10:11:28.866Z,97502.81
2023-01-06T10:13:56.786Z,97493.66
2023-01-06T10:16:45.545Z,97485.41
2023-01-06T10:19:12.434Z,97485.97
2023-01-06T10:21:49.046Z,97485.47
2023-01-06T10:24:18.316Z,97478.63
2023-01-06T10:26:45.544Z,97476.38
2023-01-06T10:29:20.992Z,97473.72
2023-01-06T10:31:48.388Z,97470.53
2023-01-06T10:34:22.451Z,97434.72
2023-01-06T10:36:53.555Z,97436.47
2023-01-06T10:39:21.299Z,97420.91
2023-01-06T10:42:16.352Z,97404.59
2023-01-06T10:44:42.897Z,97402.44
2023-01-06T10:47:14.813Z,97386.06
2023-01-06T10:49:43.247Z,97374.22
2023-01-06T10:52:12.778Z,97363.06
2023-01-06T10:54:41.749Z,97356.47
2023-01-06T10:57:15.300Z,97335.88
2023-01-06T11:00:12.223Z,97340.41
2023-01-06T11:02:48.945Z,97330.59
2023-01-06T11:05:17.108Z,97314.22
2023-01-06T11:07:54.978Z,97314.75
2023-01-06T11:10:27.231Z,97303.91
2023-01-06T11:12:56.569Z,97292.00
2023-01-06T11:15:25.735Z,97285.69
2023-01-06T11:17:52.260Z,97280.66
2023-01-06T11:20:18.684Z,97272.97
2023-01-06T11:22:45.334Z,97257.09
2023-01-06T11:25:20.963Z,97244.41
2023-01-06T11:27:48.095Z,97248.66
2023-01-06T11:30:21.998Z,97235.69
2023-01-06T11:32:48.489Z,97225.91
2023-01-06T11:35:24.572Z,97223.00
2023-01-06T11:37:58.698Z,97217.44
2023-01-06T11:40:35.936Z,97208.97
2023-01-06T11:43:16.431Z,97197.88
2023-01-06T11:45:49.365Z,97201.53
2023-01-06T11:48:17.650Z,97194.16
2023-01-06T11:50:55.598Z,97185.66
2023-01-06T11:53:24.453Z,97169.28
2023-01-06T11:55:59.744Z,97160.00
2023-01-06T11:58:29.832Z,97148.09
2023-01-06T12:01:02.617Z,97140.69
2023-01-06T12:03:33.157Z,97134.06
2023-01-06T12:06:05.888Z,97125.06
2023-01-06T12:08:42.917Z,97118.47
2023-01-06T12:11:15.614Z,97113.13
2023-01-06T12:13:45.656Z,97105.19
2023-01-06T12:16:23.730Z,97102.56
2023-01-06T12:18:51.105Z,97094.88
2023-01-06T12:21:27.095Z,97088.25
2023-01-06T12:23:55.211Z,97078.19
2023-01-06T12:26:23.967Z,97067.00
2023-01-06T12:28:53.511Z,97065.66
2023-01-06T12:31:23.140Z,97056.97
2023-01-06T12:33:53.621Z,97066.50
2023-01-06T12:36:31.144Z,97059.09
2023-01-06T12:39:00.185Z,97051.09
2023-01-06T12:41:46.937Z,97040.25
2023-01-06T12:44:13.404Z,97045.25
2023-01-06T12:46:48.024Z,97043.94
2023-01-06T12:49:46.685Z,97029.06
2023-01-06T12:52:17.941Z,97020.84
2023-01-06T12:54:50.317Z,97010.16
2023-01-06T12:57:36.220Z,97016.56
2023-01-06T13:00:21.299Z,97010.47
2023-01-06T13:03:06.685Z,97007.56
2023-01-06T13:05:42.265Z,97004.38
2023-01-06T13:08:11.744Z,96996.94
2023-01-06T13:10:44.011Z,96989.53
2023-01-06T13:13:29.417Z,96989.53
2023-01-06T13:15:59.881Z,96980.47
2023-01-06T13:18:46.702Z,96973.59
2023-01-06T13:21:18.837Z,96974.09
2023-01-06T13:23:54.413Z,96970.38
2023-01-06T13:26:26.977Z,96956.31
2023-01-06T13:29:12.140Z,96957.13
2023-01-06T13:31:50.810Z,96954.44
2023-01-06T13:34:27.755Z,96937.91
2023-01-06T13:37:15.974Z,96931.69
2023-01-06T13:39:47.738Z,96930.28
2023-01-06T13:42:15.859Z,96931.81
2023-01-06T13:44:44.217Z,96933.34
2023-01-06T13:47:19.607Z,96937.63
2023-01-06T13:49:47.817Z,96935.72
2023-01-06T13:52:25.215Z,96941.22
2023-01-06T13:54:51.737Z,96937.16
2023-01-06T13:57:21.030Z,96939.81
2023-01-06T13:59:52.387Z,96945.84
2023-01-06T14:02:33.958Z,96951.44
2023-01-06T14:05:01.754Z,96965.22
2023-01-06T14:07:36.218Z,96963.91
2023-01-06T14:10:04.355Z,96974.25
2023-01-06T14:12:34.454Z,96980.88
2023-01-06T14:15:04.113Z,96987.28
2023-01-06T14:17:35.600Z,96988.81
2023-01-06T14:20:02.328Z,96998.41
2023-01-06T14:22:30.047Z,96996.31
2023-01-06T14:24:58.858Z,96991.50
2023-01-06T14:27:44.042Z,96982.50
2023-01-06T14:30:31.488Z,96977.13
2023-01-06T14:33:03.260Z,96972.63
2023-01-06T14:35:33.175Z,96973.97
2023-01-06T14:38:04.471Z,96981.13
2023-01-06T14:40:47.985Z,96976.94
2023-01-06T14:43:27.874Z,96979.31
2023-01-06T14:45:56.835Z,96979.31
2023-01-06T14:48:24.945Z,96972.44
2023-01-06T14:50:57.988Z,96955.97
2023-01-06T14:53:37.282Z,96950.66
2023-01-06T14:56:05.196Z,96937.97
2023-01-06T14:58:32.730Z,96938.25
2023-01-06T15:00:59.760Z,96939.38
2023-01-06T15:03:27.709Z,96932.13
2023-01-06T15:06:23.517Z,96908.53
2023-01-06T15:08:50.125Z,96921.13
2023-01-06T15:11:30.107Z,96909.69
2023-01-06T15:13:59.721Z,96917.44
2023-01-06T15:16:39.429Z,96904.13
2023-01-06T15:19:07.000Z,96908.88
2023-01-06T15:21:38.300Z,96904.66
2023-01-06T15:24:04.932Z,96904.13
2023-01-06T15:26:31.916Z,96905.19
2023-01-06T15:29:03.304Z,96903.34
2023-01-06T15:31:31.646Z,96910.56
2023-01-06T15:33:59.073Z,96905.75
2023-01-06T15:36:26.432Z,96905.81
2023-01-06T15:38:54.486Z,96902.91
2023-01-06T15:41:33.205Z,96893.59
2023-01-06T15:44:18.807Z,96893.34
2023-01-06T15:46:45.368Z,96886.72
2023-01-06T15:49:31.982Z,96884.88
2023-01-06T15:52:01.893Z,96889.38
2023-01-06T15:54:30.315Z,96880.81
2023-01-06T15:57:05.142Z,96879.84
2023-01-06T15:59:38.774Z,96872.41
2023-01-06T16:02:05.457Z,96863.38
2023-01-06T16:04:32.110Z,96860.22
2023-01-06T16:07:18.563Z,96860.69
2023-01-06T16:09:45.148Z,96848.50
2023-01-06T16:12:17.255Z,96855.94
2023-01-06T16:14:47.153Z,96853.63
2023-01-06T16:17:27.275Z,96844.81
2023-01-06T16:20:02.341Z,96848.50
2023-01-06T16:22:31.836Z,96842.38
2023-01-06T16:25:00.202Z,96843.75
2023-01-06T16:27:28.993Z,96838.44
2023-01-06T16:30:09.210Z,96843.19
2023-01-06T16:32:38.628Z,96835.28
2023-01-06T16:35:10.576Z,96835.50
2023-01-06T16:37:37.166Z,96837.31
2023-01-06T16:40:03.815Z,96827.00
2023-01-06T16:42:40.495Z,96824.63
2023-01-06T16:45:12.888Z,96814.53
2023-01-06T16:47:40.272Z,96829.69
2023-01-06T16:50:20.027Z,96822.25
2023-01-06T16:52:48.466Z,96819.38
2023-01-06T16:55:18.378Z,96818.81
2023-01-06T16:57:53.848Z,96812.47
2023-01-06T17:00:22.055Z,96799.72
2023-01-06T17:02:49.806Z,96811.03
2023-01-06T17:05:24.353Z,96806.31
2023-01-06T17:07:51.859Z,96804.25
2023-01-06T17:10:22.042Z,96795.78
2023-01-06T17:13:27.407Z,96793.66
2023-01-06T17:16:04.072Z,96775.47
2023-01-06T17:18:31.071Z,96770.13
2023-01-06T17:21:05.830Z,96774.94
2023-01-06T17:23:43.603Z,96775.53
2023-01-06T17:26:15.565Z,96770.59
2023-01-06T17:28:42.750Z,96776.16
2023-01-06T17:31:14.995Z,96765.06
2023-01-06T17:33:41.789Z,96758.00
2023-01-06T17:36:17.533Z,96758.50
2023-01-06T17:38:47.388Z,96756.69
2023-01-06T17:41:13.865Z,96758.13
2023-01-06T17:43:40.371Z,96764.00
2023-01-06T17:46:16.628Z,96758.69
2023-01-06T17:48:45.024Z,96762.34
2023-01-06T17:51:12.865Z,96758.06
2023-01-06T17:53:57.793Z,96756.97
2023-01-06T17:56:25.559Z,96756.56
2023-01-06T17:58:52.126Z,96757.09
2023-01-06T18:01:27.316Z,96754.47
2023-01-06T18:03:55.121Z,96746.03
2023-01-06T18:06:26.230Z,96742.28
2023-01-06T18:09:21.273Z,96747.44
2023-01-06T18:11:49.783Z,96748.00
2023-01-06T18:14:23.691Z,96748.38
2023-01-06T18:16:52.153Z,96744.41
2023-01-06T18:19:25.388Z,96737.47
2023-01-06T18:21:53.887Z,96735.63
2023-01-06T18:24:23.496Z,96730.25
2023-01-06T18:26:55.300Z,96732.06
2023-01-06T18:29:23.657Z,96732.06
2023-01-06T18:31:51.208Z,96730.03
2023-01-06T18:34:17.735Z,96732.19
2023-01-06T18:36:45.372Z,96726.88
2023-01-06T18:39:12.900Z,96723.16
2023-01-06T18:41:39.389Z,96723.72
2023-01-06T18:44:15.995Z,96716.72
2023-01-06T18:46:42.498Z,96703.63
2023-01-06T18:49:14.361Z,96709.25
2023-01-06T18:51:40.963Z,96708.84
2023-01-06T18:54:19.230Z,96702.75
2023-01-06T18:56:48.104Z,96700.56
2023-01-06T18:59:17.531Z,96697.66
2023-01-06T19:01:52.533Z,96696.06
2023-01-06T19:04:33.010Z,96688.63
2023-01-06T19:07:09.600Z,96684.91
2023-01-06T19:09:41.331Z,96671.06
2023-01-06T19:12:09.596Z,96674.28
2023-01-06T19:14:41.488Z,96662.13
2023-01-06T19:17:19.716Z,96663.41
2023-01-06T19:19:46.434Z,96655.69
2023-01-06T19:22:22.066Z,96654.84
2023-01-06T19:24:50.801Z,96668.88
2023-01-06T19:27:20.296Z,96666.78
2023-01-06T19:29:46.861Z,96668.38
2023-01-06T19:32:14.680Z,96664.59
2023-01-06T19:34:41.409Z,96665.66
2023-01-06T19:37:16.306Z,96653.97
2023-01-06T19:39:45.009Z,96653.03
2023-01-06T19:42:27.155Z,96658.06
2023-01-06T19:44:54.642Z,96647.56
2023-01-06T19:47:25.312Z,96655.69
2023-01-06T19:49:57.821Z,96659.84
2023-01-06T19:52:26.187Z,96642.22
2023-01-06T19:54:52.698Z,96657.72
2023-01-06T19:57:26.861Z,96654.88
2023-01-06T19:59:54.237Z,96653.31
2023-01-06T20:02:31.670Z,96663.13
2023-01-06T20:04:58.358Z,96641.06
2023-01-06T20:07:24.824Z,96640.22
2023-01-06T20:09:51.347Z,96638.13
2023-01-06T20:12:17.842Z,96634.47
2023-01-06T20:14:44.965Z,96640.34
2023-01-06T20:17:14.637Z,96638.25
2023-01-06T20:19:41.114Z,96626.59
2023-01-06T20:22:07.638Z,96616.06
2023-01-06T20:24:34.079Z,96608.13
2023-01-06T20:27:00.572Z,96612.34
2023-01-06T20:29:27.028Z,96613.41
2023-01-06T20:31:53.616Z,96621.38
2023-01-06T20:34:20.201Z,96627.53
2023-01-06T20:36:46.710Z,96619.28
2023-01-06T20:39:15.147Z,96611.06
2023-01-06T20:41:41.856Z,96604.16
2023-01-06T20:44:08.331Z,96603.78
2023-01-06T20:46:34.809Z,96597.28
2023-01-06T20:49:01.273Z,96598.44
2023-01-06T20:51:27.837Z,96589.97
2023-01-06T20:53:54.272Z,96585.75
2023-01-06T20:56:20.716Z,96588.50
2023-01-06T20:58:47.227Z,96594.78
2023-01-06T21:01:13.839Z,96589.97
2023-01-06T21:03:40.378Z,96587.31
2023-01-06T21:06:07.026Z,96588.91
2023-01-06T21:08:33.536Z,96575.72
2023-01-06T21:10:59.996Z,96576.22
2023-01-06T21:13:26.566Z,96577.28
2023-01-06T21:15:53.724Z,96581.81
2023-01-06T21:18:20.271Z,96585.75
2023-01-06T21:20:49.650Z,96582.03
2023-01-06T21:23:17.990Z,96585.19
2023-01-06T21:25:46.596Z,96580.94
2023-01-06T21:28:13.068Z,96571.63
2023-01-06T21:30:39.536Z,96571.34
2023-01-06T21:33:06.033Z,96571.34
2023-01-06T21:35:32.522Z,96573.72
2023-01-06T21:37:59.044Z,96564.81
2023-01-06T21:40:25.521Z,96559.50
2023-01-06T21:43:12.004Z,96553.81
2023-01-06T21:45:39.323Z,96551.72
2023-01-06T21:48:06.468Z,96544.34
2023-01-06T21:50:35.185Z,96544.84
2023-01-06T21:53:01.759Z,96546.91
2023-01-06T21:55:28.276Z,96538.47
2023-01-06T21:57:56.635Z,96534.75
2023-01-06T22:00:23.330Z,96534.53
2023-01-06T22:02:51.984Z,96532.38
2023-01-06T22:05:18.700Z,96515.69
2023-01-06T22:07:47.197Z,96518.03
2023-01-06T22:10:17.393Z,96514.59
2023-01-06T22:12:45.225Z,96518.84
2023-01-06T22:15:16.528Z,96518.25
2023-01-06T22:17:43.094Z,96519.63
2023-01-06T22:20:10.274Z,96524.53
2023-01-06T22:22:36.959Z,96521.25
2023-01-06T22:25:04.347Z,96517.44
2023-01-06T22:27:32.988Z,96520.44
2023-01-06T22:29:59.423Z,96515.94
2023-01-06T22:32:27.670Z,96523.88
2023-01-06T22:34:54.168Z,96521.44
2023-01-06T22:37:20.653Z,96528.63
2023-01-06T22:39:47.187Z,96521.75
2023-01-06T22:42:13.693Z,96525.19
2023-01-06T22:44:40.223Z,96523.25
2023-01-06T22:47:06.805Z,96510.09
2023-01-06T22:49:33.307Z,96506.56
2023-01-06T22:51:59.837Z,96516.19
2023-01-06T22:54:26.361Z,96508.50
2023-01-06T22:56:52.848Z,96512.03
2023-01-06T22:59:19.335Z,96523.25
2023-01-06T23:01:46.028Z,96521.84
2023-01-06T23:04:15.456Z,96507.72
2023-01-06T23:06:42.207Z,96506.28
2023-01-06T23:09:08.652Z,96496.53
2023-01-06T23:11:36.991Z,96519.91
2023-01-06T23:14:04.740Z,96497.13
2023-01-06T23:16:31.234Z,96497.13
2023-01-06T23:18:57.824Z,96488.06
2023-01-06T23:21:25.516Z,96489.16
2023-01-06T23:23:52.766Z,96494.16
2023-01-06T23:26:20.866Z,96490.22
2023-01-06T23:28:47.376Z,96488.28
2023-01-06T23:31:15.406Z,96480.63
2023-01-06T23:33:47.045Z,96484.38
2023-01-06T23:36:14.715Z,96492.63
2023-01-06T23:38:41.228Z,96490.66
2023-01-06T23:41:12.047Z,96486.13
2023-01-06T23:43:39.232Z,96485.34
2023-01-06T23:46:07.864Z,96486.13
2023-01-06T23:48:34.939Z,96480.31
2023-01-06T23:51:02.173Z,96466.09
2023-01-06T23:53:31.134Z,96464.34
2023-01-06T23:55:58.524Z,96463.34
2023-01-06T23:58:25.625Z,96466.69
